Time;durP1;ratioP1;P1;durP2;ratioP2;P2;SDS_P1;SDS_P2;PMS_P1;PMS_P2;Temp;Humidity;BMP_temperature;BMP_pressure;BME280_temperature;BME280_humidity;BME280_pressure;Samples;Min_cycle;Max_cycle;Signal;HPM_P1;HPM_P2
2024/03/19 00:04:08;;;;;;;7.15;6.38;;;;;;;;;;10251760;28;20541;-62
2024/03/19 00:09:07;;;;;;;8.55;7.75;;;;;;;;;;10252623;28;20069;-62
2024/03/19 00:14:06;;;;;;;13.65;8.65;;;;;;;;;;10254565;28;20049;-62
2024/03/19 00:19:04;;;;;;;11.00;7.25;;;;;;;;;;10259055;28;20064;-62
2024/03/19 00:24:02;;;;;;;13.98;11.52;;;;;;;;;;10253473;28;20077;-62
2024/03/19 00:28:59;;;;;;;15.63;12.63;;;;;;;;;;10250907;28;20067;-62
2024/03/19 00:33:58;;;;;;;14.70;12.63;;;;;;;;;;10258486;28;20573;-62
2024/03/19 00:38:55;;;;;;;17.00;14.02;;;;;;;;;;10270271;28;20084;-62
2024/03/19 00:43:54;;;;;;;20.38;14.82;;;;;;;;;;10255853;28;20079;-62
2024/03/19 00:48:51;;;;;;;19.02;15.05;;;;;;;;;;10249914;28;20060;-61
2024/03/19 00:53:50;;;;;;;21.70;16.08;;;;;;;;;;10251538;28;20553;-61
2024/03/19 00:58:47;;;;;;;21.15;16.13;;;;;;;;;;10255942;28;20081;-62
2024/03/19 01:03:45;;;;;;;19.45;15.55;;;;;;;;;;10258572;28;20088;-62
2024/03/19 01:08:42;;;;;;;19.65;14.07;;;;;;;;;;10248859;28;20103;-61
2024/03/19 01:13:43;;;;;;;17.88;14.88;;;;;;;;;;10257217;28;20069;-61
2024/03/19 01:18:41;;;;;;;23.95;16.45;;;;;;;;;;10250437;28;20084;-62
2024/03/19 01:23:38;;;;;;;29.92;19.58;;;;;;;;;;10251962;28;20455;-62
2024/03/19 01:28:35;;;;;;;42.72;18.77;;;;;;;;;;10256405;28;20483;-62
2024/03/19 01:33:34;;;;;;;37.90;19.58;;;;;;;;;;10253727;28;20053;-62
2024/03/19 01:38:32;;;;;;;29.67;18.15;;;;;;;;;;10255453;28;20064;-61
2024/03/19 01:43:29;;;;;;;37.97;18.50;;;;;;;;;;10250293;28;20072;-62
2024/03/19 01:48:26;;;;;;;48.55;18.52;;;;;;;;;;10254068;28;20061;-61
2024/03/19 01:53:25;;;;;;;23.08;16.75;;;;;;;;;;10252904;28;20065;-61
2024/03/19 01:58:23;;;;;;;28.75;17.38;;;;;;;;;;10248057;28;20088;-62
2024/03/19 02:03:22;;;;;;;80.90;18.63;;;;;;;;;;10257125;28;20069;-61
2024/03/19 02:08:19;;;;;;;47.72;17.77;;;;;;;;;;10256365;28;20076;-62
2024/03/19 02:13:18;;;;;;;66.95;18.67;;;;;;;;;;10259983;28;20088;-62
2024/03/19 02:18:16;;;;;;;51.80;17.85;;;;;;;;;;10255094;28;20060;-61
2024/03/19 02:23:15;;;;;;;48.78;18.15;;;;;;;;;;10250743;28;20065;-62
2024/03/19 02:28:14;;;;;;;73.10;19.98;;;;;;;;;;10249815;28;20045;-62
2024/03/19 02:33:11;;;;;;;61.63;17.63;;;;;;;;;;10250496;28;20069;-62
2024/03/19 02:38:09;;;;;;;60.78;20.27;;;;;;;;;;10243695;28;20088;-61
2024/03/19 02:43:07;;;;;;;52.17;19.13;;;;;;;;;;10252012;28;20072;-62
2024/03/19 02:48:05;;;;;;;33.47;19.65;;;;;;;;;;10247860;28;20556;-61
2024/03/19 02:53:02;;;;;;;37.63;18.50;;;;;;;;;;10251059;28;20067;-62
2024/03/19 02:58:00;;;;;;;61.42;22.02;;;;;;;;;;10250930;28;20072;-62
2024/03/19 03:02:59;;;;;;;33.35;19.08;;;;;;;;;;10249668;28;20087;-61
2024/03/19 03:07:57;;;;;;;38.53;20.75;;;;;;;;;;10242491;28;20084;-62
2024/03/19 03:12:54;;;;;;;32.22;21.27;;;;;;;;;;10248901;28;20084;-61
2024/03/19 03:17:52;;;;;;;46.92;20.98;;;;;;;;;;10247747;28;20075;-61
2024/03/19 03:22:50;;;;;;;37.35;21.05;;;;;;;;;;10247980;28;20155;-61
2024/03/19 03:27:49;;;;;;;30.10;22.00;;;;;;;;;;10243177;28;20071;-62
2024/03/19 03:32:46;;;;;;;36.72;22.75;;;;;;;;;;10248579;28;20069;-62
2024/03/19 03:37:44;;;;;;;32.75;22.60;;;;;;;;;;10249226;28;20101;-62
2024/03/19 03:42:43;;;;;;;37.38;22.00;;;;;;;;;;10243820;28;20159;-62
2024/03/19 03:47:41;;;;;;;31.27;21.73;;;;;;;;;;10242673;28;20091;-63
2024/03/19 03:52:39;;;;;;;35.63;21.95;;;;;;;;;;10239209;28;20076;-62
2024/03/19 03:57:37;;;;;;;36.55;21.98;;;;;;;;;;10239345;28;20075;-63
2024/03/19 04:02:36;;;;;;;28.55;22.30;;;;;;;;;;10236836;28;20131;-62
2024/03/19 04:07:36;;;;;;;28.17;21.17;;;;;;;;;;10238890;28;20088;-62
2024/03/19 04:12:33;;;;;;;32.65;21.48;;;;;;;;;;10266267;28;20071;-62
2024/03/19 04:17:31;;;;;;;29.25;21.02;;;;;;;;;;10284277;28;20478;-62
2024/03/19 04:22:30;;;;;;;25.85;21.25;;;;;;;;;;10284562;28;20087;-62
2024/03/19 04:27:27;;;;;;;31.27;22.90;;;;;;;;;;10284692;28;20087;-62
2024/03/19 04:32:26;;;;;;;29.45;20.48;;;;;;;;;;10279850;28;20076;-62
2024/03/19 04:37:23;;;;;;;29.88;21.58;;;;;;;;;;10274916;28;20083;-62
2024/03/19 04:42:22;;;;;;;32.80;22.17;;;;;;;;;;10283103;28;20458;-62
2024/03/19 04:47:20;;;;;;;31.90;20.67;;;;;;;;;;10295134;28;20068;-62
2024/03/19 04:52:17;;;;;;;50.85;22.58;;;;;;;;;;10292960;28;20847;-62
2024/03/19 04:57:14;;;;;;;26.85;19.83;;;;;;;;;;10270925;28;20311;-62
2024/03/19 05:02:13;;;;;;;29.23;21.27;;;;;;;;;;10281537;28;20143;-62
2024/03/19 05:07:11;;;;;;;56.13;24.30;;;;;;;;;;10281971;28;20140;-62
2024/03/19 05:12:09;;;;;;;44.20;24.02;;;;;;;;;;10283736;28;20623;-61
2024/03/19 05:17:07;;;;;;;40.25;24.42;;;;;;;;;;10282050;28;20067;-62
2024/03/19 05:22:06;;;;;;;41.28;27.38;;;;;;;;;;10278443;28;20068;-62
2024/03/19 05:27:04;;;;;;;35.97;24.50;;;;;;;;;;10283080;28;20560;-62
2024/03/19 05:32:01;;;;;;;30.77;24.77;;;;;;;;;;10280224;28;20115;-61
2024/03/19 05:36:58;;;;;;;21.17;17.83;;;;;;;;;;10284446;28;20083;-62
2024/03/19 05:41:57;;;;;;;41.90;19.83;;;;;;;;;;10290325;28;20072;-62
2024/03/19 05:46:55;;;;;;;23.33;17.88;;;;;;;;;;10289868;28;20131;-62
2024/03/19 05:51:52;;;;;;;31.67;20.20;;;;;;;;;;10289791;28;20592;-62
2024/03/19 05:56:50;;;;;;;20.58;15.27;;;;;;;;;;10289430;28;20083;-62
2024/03/19 06:01:48;;;;;;;15.60;14.00;;;;;;;;;;10290049;28;20065;-62
2024/03/19 06:06:46;;;;;;;18.63;15.95;;;;;;;;;;10271495;28;20080;-61
2024/03/19 06:11:44;;;;;;;16.88;14.93;;;;;;;;;;10270890;28;20076;-62
2024/03/19 06:16:42;;;;;;;16.80;14.05;;;;;;;;;;10289495;28;20079;-62
2024/03/19 06:21:42;;;;;;;14.57;13.07;;;;;;;;;;10287059;28;20605;-62
2024/03/19 06:26:40;;;;;;;16.77;13.80;;;;;;;;;;10294638;28;20080;-62
2024/03/19 06:31:38;;;;;;;15.18;13.60;;;;;;;;;;10288177;28;20174;-62
2024/03/19 06:36:35;;;;;;;15.90;13.07;;;;;;;;;;10287238;28;20496;-62
2024/03/19 06:41:34;;;;;;;14.73;12.35;;;;;;;;;;10279139;28;20067;-62
2024/03/19 06:46:32;;;;;;;14.20;11.55;;;;;;;;;;10280190;28;20067;-62
2024/03/19 06:51:29;;;;;;;17.33;13.20;;;;;;;;;;10273146;28;20544;-63
2024/03/19 06:56:27;;;;;;;14.05;12.68;;;;;;;;;;10289727;28;20435;-62
2024/03/19 07:01:27;;;;;;;16.33;12.77;;;;;;;;;;10271607;28;20079;-62
2024/03/19 07:06:25;;;;;;;14.90;13.48;;;;;;;;;;10270347;28;20120;-63
2024/03/19 07:11:22;;;;;;;15.20;11.48;;;;;;;;;;10277760;28;20512;-62
2024/03/19 07:16:20;;;;;;;13.50;12.23;;;;;;;;;;10281474;28;20083;-62
2024/03/19 07:21:18;;;;;;;12.70;11.35;;;;;;;;;;10283767;28;20060;-61
2024/03/19 07:26:16;;;;;;;13.48;12.07;;;;;;;;;;10285849;28;20127;-62
2024/03/19 07:31:14;;;;;;;13.57;11.32;;;;;;;;;;10285297;28;20532;-62
2024/03/19 07:36:11;;;;;;;11.95;10.55;;;;;;;;;;10286619;28;20060;-62
2024/03/19 07:41:10;;;;;;;12.50;11.10;;;;;;;;;;10286424;28;20071;-62
2024/03/19 07:46:09;;;;;;;13.20;11.43;;;;;;;;;;10287033;28;20131;-62
2024/03/19 07:51:07;;;;;;;13.95;11.38;;;;;;;;;;10288590;28;20059;-62
2024/03/19 07:56:05;;;;;;;10.30;9.30;;;;;;;;;;10316711;28;20524;-62
2024/03/19 08:01:07;;;;;;;10.05;9.05;;;;;;;;;;10284974;28;20095;-62
2024/03/19 08:06:04;;;;;;;10.70;9.60;;;;;;;;;;10285156;28;20147;-62
2024/03/19 08:11:02;;;;;;;10.85;9.52;;;;;;;;;;10284505;28;20075;-62
2024/03/19 08:16:01;;;;;;;11.98;10.73;;;;;;;;;;10283968;28;20076;-62
2024/03/19 08:21:00;;;;;;;12.93;10.93;;;;;;;;;;10301423;28;20080;-62
2024/03/19 08:25:57;;;;;;;10.65;9.65;;;;;;;;;;10302364;28;20156;-62
2024/03/19 08:30:56;;;;;;;14.60;11.10;;;;;;;;;;10285495;28;20071;-62
2024/03/19 08:35:54;;;;;;;12.85;11.07;;;;;;;;;;10284873;28;20063;-62
2024/03/19 08:40:53;;;;;;;13.23;11.77;;;;;;;;;;10278497;28;20077;-63
2024/03/19 08:45:50;;;;;;;15.68;11.77;;;;;;;;;;10296769;28;20103;-60
2024/03/19 08:50:48;;;;;;;14.45;12.93;;;;;;;;;;10273763;28;20068;-61
2024/03/19 08:55:55;;;;;;;17.48;13.80;;;;;;;;;;10276077;28;20057;-61
2024/03/19 09:00:54;;;;;;;15.50;13.93;;;;;;;;;;10275119;28;20056;-61
2024/03/19 09:05:55;;;;;;;12.10;10.85;;;;;;;;;;10275867;28;20083;-61
2024/03/19 09:10:53;;;;;;;11.40;10.40;;;;;;;;;;10284046;28;20084;-62
2024/03/19 09:15:51;;;;;;;11.85;10.65;;;;;;;;;;10291849;28;20056;-62
2024/03/19 09:20:50;;;;;;;13.32;12.02;;;;;;;;;;10291402;28;20087;-62
2024/03/19 09:25:49;;;;;;;17.42;13.48;;;;;;;;;;10290249;28;20072;-62
2024/03/19 09:30:47;;;;;;;8.73;7.93;;;;;;;;;;10292053;28;20513;-62
2024/03/19 09:35:45;;;;;;;11.07;9.90;;;;;;;;;;10291701;28;20090;-61
2024/03/19 09:40:45;;;;;;;10.20;9.07;;;;;;;;;;10299295;28;20064;-62
2024/03/19 09:45:43;;;;;;;11.82;8.52;;;;;;;;;;10291455;28;20064;-62
2024/03/19 09:50:41;;;;;;;10.15;9.15;;;;;;;;;;10289940;28;20060;-61
2024/03/19 09:55:39;;;;;;;10.50;9.50;;;;;;;;;;10288320;28;20067;-61
2024/03/19 10:00:38;;;;;;;9.55;8.60;;;;;;;;;;10289356;28;20074;-62
2024/03/19 10:05:36;;;;;;;13.02;9.23;;;;;;;;;;10281188;28;20530;-62
2024/03/19 10:10:33;;;;;;;10.57;9.40;;;;;;;;;;10282691;28;20099;-62
2024/03/19 10:15:31;;;;;;;13.05;10.57;;;;;;;;;;10281853;28;20477;-62
2024/03/19 10:20:30;;;;;;;10.20;9.13;;;;;;;;;;10281291;28;20068;-62
2024/03/19 10:25:27;;;;;;;12.00;10.32;;;;;;;;;;10280375;28;20499;-62
2024/03/19 10:30:24;;;;;;;11.98;10.68;;;;;;;;;;10288206;28;20072;-62
2024/03/19 10:35:23;;;;;;;13.27;11.90;;;;;;;;;;10280753;28;20067;-62
2024/03/19 10:40:22;;;;;;;13.27;10.20;;;;;;;;;;10281573;28;20083;-62
2024/03/19 10:45:21;;;;;;;18.77;16.35;;;;;;;;;;10279801;28;20073;-62
2024/03/19 10:50:19;;;;;;;11.13;9.77;;;;;;;;;;10278111;28;20491;-62
2024/03/19 10:55:18;;;;;;;8.73;7.78;;;;;;;;;;10286512;28;20071;-63
2024/03/19 11:00:23;;;;;;;14.48;12.20;;;;;;;;;;10288016;28;20668;-62
2024/03/19 11:05:21;;;;;;;11.55;9.35;;;;;;;;;;10285174;28;20080;-62
2024/03/19 11:10:22;;;;;;;17.75;12.80;;;;;;;;;;10278947;28;20522;-60
2024/03/19 11:15:21;;;;;;;13.65;11.43;;;;;;;;;;10280829;28;20506;-61
2024/03/19 11:20:21;;;;;;;13.60;12.02;;;;;;;;;;10278489;28;20072;-62
2024/03/19 11:25:21;;;;;;;16.27;14.57;;;;;;;;;;10275645;28;20091;-61
2024/03/19 11:30:19;;;;;;;13.32;10.43;;;;;;;;;;10280453;28;20075;-62
2024/03/19 11:35:22;;;;;;;16.98;13.82;;;;;;;;;;10277398;28;20082;-61
2024/03/19 11:40:22;;;;;;;13.25;11.40;;;;;;;;;;10281910;28;20075;-61
2024/03/19 11:45:20;;;;;;;13.50;9.45;;;;;;;;;;10281868;28;20065;-62
2024/03/19 11:50:18;;;;;;;16.88;12.88;;;;;;;;;;10277675;28;20052;-62
2024/03/19 11:55:20;;;;;;;14.70;11.60;;;;;;;;;;10296812;28;20072;-61
2024/03/19 12:00:19;;;;;;;17.80;14.40;;;;;;;;;;10283087;28;20067;-62
2024/03/19 12:05:19;;;;;;;22.98;16.67;;;;;;;;;;10286353;28;20072;-62
2024/03/19 12:10:25;;;;;;;15.18;13.00;;;;;;;;;;10282707;28;20080;-62
2024/03/19 12:15:23;;;;;;;11.43;9.52;;;;;;;;;;10295033;28;20458;-62
2024/03/19 12:20:22;;;;;;;10.80;8.80;;;;;;;;;;10277807;28;20061;-62
2024/03/19 12:25:22;;;;;;;16.70;12.40;;;;;;;;;;10273151;28;20075;-62
2024/03/19 12:30:22;;;;;;;13.95;9.82;;;;;;;;;;10276219;28;20072;-62
2024/03/19 12:35:19;;;;;;;16.92;14.82;;;;;;;;;;10276572;28;20064;-61
2024/03/19 12:40:18;;;;;;;17.55;12.02;;;;;;;;;;10276193;28;20563;-61
2024/03/19 12:45:17;;;;;;;17.63;12.88;;;;;;;;;;10273856;28;20071;-62
2024/03/19 12:50:17;;;;;;;10.88;8.88;;;;;;;;;;10272457;28;20536;-62
2024/03/19 12:55:15;;;;;;;13.45;10.48;;;;;;;;;;10273214;28;20072;-62
2024/03/19 13:00:16;;;;;;;14.07;10.50;;;;;;;;;;10276113;28;20076;-62
2024/03/19 13:05:15;;;;;;;12.75;11.45;;;;;;;;;;10277106;28;20088;-62
2024/03/19 13:10:20;;;;;;;16.17;13.40;;;;;;;;;;10281279;28;20071;-62
2024/03/19 13:15:20;;;;;;;16.55;13.75;;;;;;;;;;10277645;28;20068;-63
2024/03/19 13:20:17;;;;;;;38.63;22.60;;;;;;;;;;10278332;28;20076;-61
2024/03/19 13:25:17;;;;;;;19.40;15.68;;;;;;;;;;10275438;28;20084;-62
2024/03/19 13:30:14;;;;;;;56.38;34.42;;;;;;;;;;10273583;28;20500;-63
2024/03/19 13:35:12;;;;;;;11.35;10.18;;;;;;;;;;10273570;28;20465;-63
2024/03/19 13:40:10;;;;;;;14.50;10.85;;;;;;;;;;10274554;28;20036;-62
2024/03/19 13:45:12;;;;;;;12.32;9.98;;;;;;;;;;10273350;28;20458;-62
2024/03/19 13:50:10;;;;;;;13.18;11.88;;;;;;;;;;10277228;28;20101;-63
2024/03/19 13:55:08;;;;;;;11.63;9.15;;;;;;;;;;10274305;28;20085;-61
2024/03/19 14:00:06;;;;;;;15.55;12.20;;;;;;;;;;10280169;28;20069;-61
2024/03/19 14:05:10;;;;;;;11.63;10.27;;;;;;;;;;10305634;28;20045;-61
2024/03/19 14:10:09;;;;;;;21.45;19.45;;;;;;;;;;10285601;28;20092;-62
2024/03/19 14:15:08;;;;;;;16.33;13.90;;;;;;;;;;10286847;28;20072;-63
2024/03/19 14:20:07;;;;;;;14.95;13.30;;;;;;;;;;10288411;28;20140;-63
2024/03/19 14:25:06;;;;;;;12.52;11.23;;;;;;;;;;10281103;28;20057;-62
2024/03/19 14:30:04;;;;;;;11.38;10.20;;;;;;;;;;10279149;28;20470;-62
2024/03/19 14:35:02;;;;;;;16.35;14.15;;;;;;;;;;10280243;28;20546;-62
2024/03/19 14:40:00;;;;;;;16.63;13.52;;;;;;;;;;10279829;28;20075;-61
2024/03/19 14:44:59;;;;;;;13.65;12.27;;;;;;;;;;10279370;28;20514;-62
2024/03/19 14:49:56;;;;;;;13.35;11.88;;;;;;;;;;10278051;28;20473;-61
2024/03/19 14:54:58;;;;;;;20.67;18.63;;;;;;;;;;10287952;28;20099;-62
2024/03/19 14:59:55;;;;;;;10.68;9.68;;;;;;;;;;10298351;28;20736;-62
2024/03/19 15:04:54;;;;;;;17.85;15.68;;;;;;;;;;10279938;28;20068;-62
2024/03/19 15:09:52;;;;;;;12.02;10.30;;;;;;;;;;10277795;28;20451;-62
2024/03/19 15:14:49;;;;;;;11.98;9.65;;;;;;;;;;10286186;28;20146;-62
2024/03/19 15:19:46;;;;;;;12.40;10.80;;;;;;;;;;10288931;28;20463;-62
2024/03/19 15:24:46;;;;;;;11.02;9.98;;;;;;;;;;10280439;28;20087;-61
2024/03/19 15:29:43;;;;;;;25.42;21.33;;;;;;;;;;10283334;28;20714;-62
2024/03/19 15:34:41;;;;;;;10.43;9.45;;;;;;;;;;10290353;28;20068;-62
2024/03/19 15:39:38;;;;;;;10.88;9.88;;;;;;;;;;10279663;28;20703;-62
2024/03/19 15:44:37;;;;;;;9.35;8.45;;;;;;;;;;10278303;28;20068;-62
2024/03/19 15:49:34;;;;;;;15.13;13.57;;;;;;;;;;10272968;28;20490;-62
2024/03/19 15:54:36;;;;;;;16.10;14.43;;;;;;;;;;10274995;28;20065;-62
2024/03/19 15:59:34;;;;;;;26.73;20.55;;;;;;;;;;10277751;28;20091;-62
2024/03/19 16:04:33;;;;;;;50.00;25.85;;;;;;;;;;10278316;28;20478;-62
2024/03/19 16:09:30;;;;;;;21.33;13.57;;;;;;;;;;10275500;28;20068;-62
2024/03/19 16:14:28;;;;;;;23.15;18.23;;;;;;;;;;10274873;28;20076;-62
2024/03/19 16:19:25;;;;;;;14.25;12.38;;;;;;;;;;10280711;28;20563;-61
2024/03/19 16:24:24;;;;;;;16.63;12.07;;;;;;;;;;10275340;28;20478;-62
2024/03/19 16:29:22;;;;;;;25.02;17.38;;;;;;;;;;10288912;28;20068;-62
2024/03/19 16:34:19;;;;;;;23.58;16.15;;;;;;;;;;10283054;28;20072;-61
2024/03/19 16:39:17;;;;;;;25.20;20.02;;;;;;;;;;10284742;28;20064;-61
2024/03/19 16:44:16;;;;;;;22.95;17.98;;;;;;;;;;10276386;28;20505;-60
2024/03/19 16:49:14;;;;;;;19.88;15.70;;;;;;;;;;10276804;28;20076;-61
2024/03/19 16:54:12;;;;;;;15.75;14.05;;;;;;;;;;10276868;28;20072;-61
2024/03/19 16:59:10;;;;;;;15.68;11.25;;;;;;;;;;10295752;28;20064;-62
2024/03/19 17:04:09;;;;;;;11.70;10.43;;;;;;;;;;10278556;28;20483;-61
2024/03/19 17:09:08;;;;;;;12.80;9.82;;;;;;;;;;10274405;28;20069;-62
2024/03/19 17:14:05;;;;;;;12.80;10.48;;;;;;;;;;10275443;28;20103;-61
2024/03/19 17:19:03;;;;;;;10.68;9.55;;;;;;;;;;10273821;28;20536;-61
2024/03/19 17:24:03;;;;;;;12.98;9.75;;;;;;;;;;10287124;28;20190;-61
2024/03/19 17:29:00;;;;;;;11.20;9.43;;;;;;;;;;10280955;28;20084;-61
2024/03/19 17:33:58;;;;;;;11.77;10.57;;;;;;;;;;10280279;28;20064;-61
2024/03/19 17:38:55;;;;;;;11.85;10.52;;;;;;;;;;10282892;28;20076;-61
2024/03/19 17:43:54;;;;;;;14.07;11.05;;;;;;;;;;10285149;28;20083;-60
2024/03/19 17:48:55;;;;;;;13.70;11.82;;;;;;;;;;10288979;28;20092;-62
2024/03/19 17:53:52;;;;;;;18.02;14.23;;;;;;;;;;10288247;28;20072;-60
2024/03/19 17:58:50;;;;;;;20.20;18.10;;;;;;;;;;10282317;28;20526;-61
2024/03/19 18:03:49;;;;;;;44.88;34.70;;;;;;;;;;10283101;28;20087;-61
2024/03/19 18:08:47;;;;;;;24.55;21.23;;;;;;;;;;10285873;28;20056;-61
2024/03/19 18:13:45;;;;;;;12.43;11.00;;;;;;;;;;10278648;28;20542;-60
2024/03/19 18:18:44;;;;;;;46.15;32.65;;;;;;;;;;10282881;28;20076;-61
2024/03/19 18:23:42;;;;;;;12.73;11.43;;;;;;;;;;10281422;28;20060;-60
2024/03/19 18:28:40;;;;;;;11.32;9.85;;;;;;;;;;10286420;28;20079;-61
2024/03/19 18:33:37;;;;;;;9.77;8.77;;;;;;;;;;10277315;28;20068;-62
2024/03/19 18:38:35;;;;;;;8.98;8.13;;;;;;;;;;10282405;28;20060;-61
2024/03/19 18:43:35;;;;;;;7.78;6.78;;;;;;;;;;10276406;28;20123;-62
2024/03/19 18:48:32;;;;;;;8.50;7.53;;;;;;;;;;10268264;28;20482;-61
2024/03/19 18:53:30;;;;;;;12.23;9.23;;;;;;;;;;10295859;28;20071;-62
2024/03/19 18:58:28;;;;;;;8.48;7.22;;;;;;;;;;10298902;28;20075;-63
2024/03/19 19:03:28;;;;;;;9.73;8.73;;;;;;;;;;10314544;28;20492;-62
2024/03/19 19:08:26;;;;;;;10.57;8.60;;;;;;;;;;10289864;28;20060;-61
2024/03/19 19:13:23;;;;;;;15.75;14.05;;;;;;;;;;10280356;28;20076;-62
2024/03/19 19:18:21;;;;;;;8.70;7.82;;;;;;;;;;10277045;28;20075;-61
2024/03/19 19:23:20;;;;;;;9.40;8.43;;;;;;;;;;10281126;28;20087;-62
2024/03/19 19:28:17;;;;;;;11.70;10.60;;;;;;;;;;10284241;28;20069;-61
2024/03/19 19:33:17;;;;;;;12.38;9.30;;;;;;;;;;10279267;28;20060;-62
2024/03/19 19:38:19;;;;;;;8.63;7.38;;;;;;;;;;10277541;28;20064;-62
2024/03/19 19:43:18;;;;;;;59.70;42.42;;;;;;;;;;10278448;28;20064;-62
2024/03/19 19:48:15;;;;;;;58.42;37.60;;;;;;;;;;10276266;28;20579;-62
2024/03/19 19:53:13;;;;;;;53.97;34.97;;;;;;;;;;10276465;28;20071;-62
2024/03/19 19:58:11;;;;;;;49.33;33.75;;;;;;;;;;10295315;28;20518;-62
2024/03/19 20:03:10;;;;;;;40.03;30.92;;;;;;;;;;10282493;28;20533;-63
2024/03/19 20:08:07;;;;;;;39.53;30.45;;;;;;;;;;10277085;28;20553;-60
2024/03/19 20:13:05;;;;;;;48.78;37.08;;;;;;;;;;10281057;28;20123;-61
2024/03/19 20:18:02;;;;;;;66.10;45.63;;;;;;;;;;10276370;28;20072;-61
2024/03/19 20:23:02;;;;;;;61.33;43.45;;;;;;;;;;10274958;28;20083;-61
2024/03/19 20:28:00;;;;;;;89.78;61.17;;;;;;;;;;10275726;28;20080;-61
2024/03/19 20:32:57;;;;;;;89.10;56.03;;;;;;;;;;10278823;28;20506;-61
2024/03/19 20:37:55;;;;;;;74.15;52.65;;;;;;;;;;10282054;28;20064;-60
2024/03/19 20:42:54;;;;;;;78.70;45.05;;;;;;;;;;10294236;28;20068;-61
2024/03/19 20:47:51;;;;;;;53.10;32.25;;;;;;;;;;10277090;28;20098;-64
2024/03/19 20:52:48;;;;;;;28.67;22.38;;;;;;;;;;10297181;28;20060;-61
2024/03/19 20:57:46;;;;;;;28.67;24.52;;;;;;;;;;10280967;28;20070;-60
2024/03/19 21:02:46;;;;;;;23.48;21.02;;;;;;;;;;10273506;28;20057;-61
2024/03/19 21:07:43;;;;;;;21.80;19.10;;;;;;;;;;10278696;28;20076;-61
2024/03/19 21:12:41;;;;;;;18.83;16.20;;;;;;;;;;10261082;28;20544;-61
2024/03/19 21:17:39;;;;;;;19.40;15.77;;;;;;;;;;10269079;28;20151;-61
2024/03/19 21:22:37;;;;;;;18.73;16.83;;;;;;;;;;10277284;28;20103;-62
2024/03/19 21:27:35;;;;;;;23.65;20.73;;;;;;;;;;10276355;28;20060;-61
2024/03/19 21:32:33;;;;;;;18.98;16.98;;;;;;;;;;10276638;28;20064;-61
2024/03/19 21:37:31;;;;;;;20.52;15.23;;;;;;;;;;10270016;28;20072;-61
2024/03/19 21:42:30;;;;;;;20.33;14.57;;;;;;;;;;10273230;28;20080;-62
2024/03/19 21:47:27;;;;;;;16.58;14.30;;;;;;;;;;10270521;28;20067;-61
2024/03/19 21:52:25;;;;;;;16.83;14.90;;;;;;;;;;10266040;28;20530;-60
2024/03/19 21:57:22;;;;;;;14.07;12.68;;;;;;;;;;10276157;28;20195;-61
2024/03/19 22:02:21;;;;;;;14.45;12.73;;;;;;;;;;10274521;28;20072;-62
2024/03/19 22:07:20;;;;;;;18.20;13.80;;;;;;;;;;10274085;28;20076;-61
2024/03/19 22:12:18;;;;;;;16.95;14.93;;;;;;;;;;10270547;28;20088;-61
2024/03/19 22:17:16;;;;;;;15.77;13.80;;;;;;;;;;10280242;28;20446;-61
2024/03/19 22:22:15;;;;;;;17.75;15.88;;;;;;;;;;10279125;28;20064;-61
2024/03/19 22:27:12;;;;;;;20.92;17.00;;;;;;;;;;10276151;28;20344;-61
2024/03/19 22:32:10;;;;;;;19.63;17.55;;;;;;;;;;10278740;28;20677;-62
2024/03/19 22:37:07;;;;;;;19.77;15.95;;;;;;;;;;10278443;28;20068;-62
2024/03/19 22:42:06;;;;;;;20.92;16.00;;;;;;;;;;10284935;28;20072;-61
2024/03/19 22:47:04;;;;;;;16.73;14.93;;;;;;;;;;10269254;28;20483;-61
2024/03/19 22:52:02;;;;;;;17.02;14.38;;;;;;;;;;10282628;28;20068;-61
2024/03/19 22:56:59;;;;;;;15.43;13.85;;;;;;;;;;10287089;28;20083;-62
2024/03/19 23:01:58;;;;;;;17.15;14.38;;;;;;;;;;10279186;28;20064;-62
2024/03/19 23:06:56;;;;;;;19.17;15.80;;;;;;;;;;10277600;28;20065;-62
2024/03/19 23:11:53;;;;;;;20.00;17.90;;;;;;;;;;10283779;28;20080;-62
2024/03/19 23:16:51;;;;;;;22.67;19.05;;;;;;;;;;10279386;28;20060;-63
2024/03/19 23:21:49;;;;;;;18.25;14.90;;;;;;;;;;10279371;28;20093;-62
2024/03/19 23:26:47;;;;;;;17.38;15.57;;;;;;;;;;10277902;28;20056;-62
2024/03/19 23:31:44;;;;;;;17.02;14.80;;;;;;;;;;10278972;28;20080;-62
2024/03/19 23:36:42;;;;;;;15.68;13.50;;;;;;;;;;10277273;28;20501;-62
2024/03/19 23:41:41;;;;;;;16.52;14.00;;;;;;;;;;10278510;28;20083;-62
2024/03/19 23:46:39;;;;;;;14.60;13.05;;;;;;;;;;10276780;28;20064;-62
2024/03/19 23:51:36;;;;;;;16.40;13.80;;;;;;;;;;10284760;28;20080;-62
2024/03/19 23:56:34;;;;;;;15.93;12.98;;;;;;;;;;10275833;28;20069;-61
